createdAt,value
2022-10-03T12:48:46.408Z,8.07
2022-10-03T12:52:26.765Z,3.58
2022-10-03T12:55:42.023Z,4.03
2022-10-03T12:58:47.428Z,3.58
2022-10-03T13:02:02.504Z,3.70
2022-10-03T13:05:10.390Z,2.28
2022-10-03T13:08:03.937Z,2.55
2022-10-03T13:10:55.882Z,2.08
2022-10-03T13:13:54.522Z,1.67
2022-10-03T13:16:39.938Z,2.78
2022-10-03T13:19:23.745Z,2.13
2022-10-03T13:22:07.093Z,1.63
2022-10-03T13:25:19.520Z,1.70
2022-10-03T13:28:13.550Z,1.70
2022-10-03T13:31:13.986Z,1.48
2022-10-03T13:33:50.987Z,1.70
2022-10-03T13:36:35.670Z,1.58
2022-10-03T13:39:12.051Z,1.67
2022-10-03T13:42:05.581Z,1.83
2022-10-03T13:44:55.626Z,1.65
2022-10-03T13:48:05.849Z,2.88
2022-10-03T13:51:09.304Z,3.30
2022-10-03T13:59:09.378Z,1.85
2022-10-03T14:01:43.280Z,2.45
2022-10-03T14:04:49.395Z,1.88
2022-10-03T14:07:46.459Z,3.60
2022-10-03T14:11:03.557Z,1.58
2022-10-03T14:13:47.525Z,2.20
2022-10-03T14:16:36.597Z,1.75
2022-10-03T14:19:41.072Z,3.25
2022-10-03T14:22:33.043Z,2.00
2022-10-03T14:25:35.741Z,1.65
2022-10-03T14:31:34.837Z,2.95
2022-10-03T14:34:28.175Z,3.30
2022-10-03T14:37:15.863Z,3.63
2022-10-03T14:40:08.784Z,3.25
2022-10-03T14:43:03.217Z,3.30
2022-10-03T14:45:47.706Z,7.53
2022-10-03T14:48:50.270Z,4.45
2022-10-03T14:51:29.944Z,6.47
2022-10-03T14:54:09.262Z,5.43
2022-10-03T14:56:46.785Z,4.28
2022-10-03T14:59:35.433Z,4.38
2022-10-03T15:02:38.335Z,4.85
2022-10-03T15:05:32.427Z,5.72
2022-10-03T15:08:04.412Z,8.30
2022-10-03T15:10:33.184Z,4.55
2022-10-03T15:13:11.509Z,4.63
2022-10-03T15:15:42.283Z,3.25
2022-10-03T15:18:19.498Z,3.30
2022-10-03T15:20:51.457Z,5.28
2022-10-03T15:23:44.465Z,2.78
2022-10-03T15:26:21.244Z,3.33
2022-10-03T15:28:54.376Z,2.72
2022-10-03T15:31:33.369Z,2.60
2022-10-03T15:34:06.896Z,3.42
2022-10-03T15:36:43.733Z,3.40
2022-10-03T15:39:40.568Z,4.10
2022-10-03T15:42:29.718Z,2.67
2022-10-03T15:45:07.382Z,2.17
2022-10-03T15:47:42.069Z,3.15
2022-10-03T15:50:31.117Z,3.33
2022-10-03T15:53:38.593Z,4.88
2022-10-03T15:56:19.189Z,3.53
2022-10-03T15:58:58.326Z,5.32
2022-10-03T16:01:42.497Z,2.38
2022-10-03T16:04:55.954Z,4.68
2022-10-03T16:08:01.977Z,4.03
2022-10-03T16:10:41.396Z,5.38
2022-10-03T16:13:40.732Z,3.80
2022-10-03T16:16:42.616Z,5.78
2022-10-03T16:19:41.407Z,4.25
2022-10-03T16:22:30.670Z,4.85
2022-10-03T16:25:15.305Z,3.85
2022-10-03T16:28:14.706Z,3.13
2022-10-03T16:31:02.422Z,4.40
2022-10-03T16:33:38.699Z,3.45
2022-10-03T16:36:10.608Z,5.28
2022-10-03T16:38:52.788Z,5.38
2022-10-03T16:41:33.906Z,3.90
2022-10-03T16:44:18.398Z,4.10
2022-10-03T16:46:47.314Z,5.22
2022-10-03T16:49:58.708Z,3.40
2022-10-03T16:52:37.785Z,4.45
2022-10-03T16:55:16.021Z,7.70
2022-10-03T16:58:10.694Z,5.30
2022-10-03T17:01:21.993Z,4.95
2022-10-03T17:03:51.994Z,2.70
2022-10-03T17:06:36.101Z,3.28
2022-10-03T17:09:20.176Z,4.25
2022-10-03T17:12:01.120Z,2.55
2022-10-03T17:14:42.542Z,5.75
2022-10-03T17:17:47.110Z,3.63
2022-10-03T17:20:42.733Z,4.32
2022-10-03T17:23:28.683Z,2.85
2022-10-03T17:26:10.261Z,3.28
2022-10-03T17:28:44.985Z,4.60
2022-10-03T17:31:29.640Z,3.05
2022-10-03T17:34:38.508Z,10.98
2022-10-03T17:37:33.673Z,4.28
2022-10-03T17:40:47.761Z,2.60
2022-10-03T17:43:40.482Z,6.68
2022-10-03T17:46:30.373Z,3.13
2022-10-03T17:49:14.524Z,3.38
2022-10-03T17:51:49.446Z,5.78
2022-10-03T17:54:26.426Z,7.97
2022-10-03T17:57:14.215Z,6.65
2022-10-03T17:59:54.964Z,5.47
2022-10-03T18:02:35.262Z,5.13
2022-10-03T18:05:19.937Z,5.07
2022-10-03T18:07:52.989Z,4.53
2022-10-03T18:10:48.817Z,7.13
2022-10-03T18:13:25.315Z,6.53
2022-10-03T18:16:22.680Z,8.95
2022-10-03T18:19:34.915Z,7.10
2022-10-03T18:22:40.893Z,5.97
2022-10-03T18:29:37.896Z,3.63
2022-10-03T18:32:19.572Z,5.88
2022-10-03T18:35:36.709Z,9.45
2022-10-03T18:38:20.065Z,5.28
2022-10-03T18:40:59.045Z,4.07
2022-10-03T18:43:45.580Z,4.32
2022-10-03T18:46:31.438Z,3.72
2022-10-03T18:49:34.025Z,3.22
2022-10-03T18:52:43.253Z,6.60
2022-10-03T18:55:38.253Z,4.90
2022-10-03T18:58:58.323Z,3.90
2022-10-03T19:01:43.030Z,3.95
2022-10-03T19:04:21.169Z,4.65
2022-10-03T19:06:53.973Z,3.85
2022-10-03T19:09:27.727Z,14.65
2022-10-03T19:12:08.728Z,20.38
2022-10-03T19:15:01.618Z,20.65
2022-10-03T19:17:33.252Z,15.93
2022-10-03T19:20:23.597Z,10.68
2022-10-03T19:23:37.416Z,13.63
2022-10-03T19:26:23.922Z,17.70
2022-10-03T19:29:04.014Z,13.93
2022-10-03T19:32:15.510Z,7.55
2022-10-03T19:34:47.440Z,6.63
2022-10-03T19:37:45.504Z,4.82
2022-10-03T19:40:30.032Z,6.90
2022-10-03T19:43:33.391Z,7.13
2022-10-03T19:46:57.493Z,2.85
2022-10-03T19:50:04.194Z,4.85
2022-10-03T19:52:36.853Z,3.72
2022-10-03T19:55:22.370Z,3.95
2022-10-03T19:57:58.005Z,9.70
2022-10-03T20:00:31.746Z,3.90
2022-10-03T20:03:17.714Z,2.58
2022-10-03T20:06:01.708Z,2.10
2022-10-03T20:08:45.663Z,2.50
2022-10-03T20:11:40.225Z,1.98
2022-10-03T20:14:37.362Z,3.35
2022-10-03T20:17:20.085Z,4.28
2022-10-03T20:19:56.332Z,3.47
2022-10-03T20:22:28.837Z,3.58
2022-10-03T20:24:58.287Z,3.60
2022-10-03T20:27:35.834Z,6.22
2022-10-03T20:30:40.145Z,5.43
2022-10-03T20:33:15.993Z,6.30
2022-10-03T20:36:10.748Z,4.95
2022-10-03T20:39:07.793Z,7.40
2022-10-03T20:42:15.789Z,6.95
2022-10-03T20:44:55.598Z,4.70
2022-10-03T20:47:56.222Z,5.72
2022-10-03T20:50:32.419Z,2.50
2022-10-03T20:53:15.053Z,2.28
2022-10-03T20:56:07.400Z,2.50
2022-10-03T20:58:54.810Z,2.65
2022-10-03T21:01:28.962Z,3.03
2022-10-03T21:04:22.537Z,2.75
2022-10-03T21:07:13.159Z,7.43
2022-10-03T21:09:57.279Z,2.63
2022-10-03T21:12:34.655Z,4.88
2022-10-03T21:15:29.753Z,2.95
2022-10-03T21:17:58.986Z,5.10
2022-10-03T21:20:38.086Z,3.80
2022-10-03T21:23:24.400Z,4.60
2022-10-03T21:25:58.879Z,3.15
2022-10-03T21:28:32.797Z,4.00
2022-10-03T21:31:44.357Z,3.67
2022-10-03T21:34:30.458Z,4.00
2022-10-03T21:37:25.340Z,5.85
2022-10-03T21:40:26.049Z,6.13
2022-10-03T21:43:39.928Z,4.63
2022-10-03T21:46:27.148Z,3.55
2022-10-03T21:49:22.983Z,3.25
2022-10-03T21:52:05.472Z,4.43
2022-10-03T21:55:45.363Z,6.25
2022-10-03T21:58:21.207Z,12.43
2022-10-03T22:01:24.655Z,9.75
2022-10-03T22:04:21.776Z,12.85
2022-10-03T22:07:18.742Z,6.38
2022-10-03T22:09:56.172Z,4.63
2022-10-03T22:12:29.536Z,4.97
2022-10-03T22:15:09.374Z,7.45
2022-10-03T22:17:48.400Z,5.25
2022-10-03T22:20:29.874Z,4.35
2022-10-03T22:23:25.336Z,3.97
2022-10-03T22:26:24.353Z,3.25
2022-10-03T22:29:10.165Z,4.45
2022-10-03T22:32:06.101Z,2.75
2022-10-03T22:34:58.227Z,3.33
2022-10-03T22:37:27.257Z,6.03
2022-10-03T22:40:00.108Z,3.55
2022-10-03T22:42:34.397Z,2.60
2022-10-03T22:45:05.738Z,2.53
2022-10-03T22:47:36.265Z,2.53
2022-10-03T22:50:14.664Z,2.47
2022-10-03T22:52:49.213Z,2.85
2022-10-03T22:55:22.410Z,4.38
2022-10-03T22:57:55.057Z,2.67
2022-10-03T23:00:29.588Z,2.90
2022-10-03T23:03:31.071Z,2.90
2022-10-03T23:06:19.853Z,3.25
2022-10-03T23:09:04.240Z,4.53
2022-10-03T23:11:35.767Z,3.72
2022-10-03T23:14:18.471Z,2.72
2022-10-03T23:17:16.492Z,2.90
2022-10-03T23:20:26.372Z,2.10
2022-10-03T23:23:00.873Z,2.75
2022-10-03T23:26:01.088Z,5.15
2022-10-03T23:28:35.702Z,3.90
2022-10-03T23:31:05.766Z,2.35
2022-10-03T23:33:33.730Z,2.50
2022-10-03T23:36:18.015Z,2.78
2022-10-03T23:38:49.928Z,3.33
2022-10-03T23:41:36.488Z,3.83
2022-10-03T23:44:34.561Z,8.63
2022-10-03T23:47:06.500Z,3.22
2022-10-03T23:49:37.653Z,5.78
2022-10-03T23:52:11.167Z,5.15
2022-10-03T23:54:41.521Z,5.57
2022-10-03T23:57:09.729Z,4.43
2022-10-03T23:59:39.570Z,6.88
